Time;durP1;ratioP1;P1;durP2;ratioP2;P2;SDS_P1;SDS_P2;PMS_P1;PMS_P2;Temp;Humidity;BMP_temperature;BMP_pressure;BME280_temperature;BME280_humidity;BME280_pressure;Samples;Min_cycle;Max_cycle;Signal;HPM_P1;HPM_P2
2021/12/14 00:00:43;;;;;;;32.03;16.05;;;;;;;;;;4971494;28;20130;-77
2021/12/14 00:03:12;;;;;;;25.40;14.83;;;;;;;;;;4972718;28;20038;-77
2021/12/14 00:05:39;;;;;;;29.37;14.90;;;;;;;;;;4971513;28;20113;-77
2021/12/14 00:08:06;;;;;;;36.83;15.97;;;;;;;;;;4974780;28;20026;-77
2021/12/14 00:13:12;;;;;;;24.60;14.63;;;;;;;;;;4976594;28;20118;-76
2021/12/14 00:15:38;;;;;;;27.83;14.63;;;;;;;;;;4976740;28;20117;-76
2021/12/14 00:18:06;;;;;;;26.93;14.70;;;;;;;;;;4976706;28;20031;-77
2021/12/14 00:20:38;;;;;;;29.03;14.23;;;;;;;;;;4975472;28;20063;-77
2021/12/14 00:25:49;;;;;;;30.50;15.23;;;;;;;;;;4974349;28;20043;-77
2021/12/14 00:28:17;;;;;;;27.53;14.90;;;;;;;;;;4989648;28;20181;-77
2021/12/14 00:30:45;;;;;;;26.67;14.43;;;;;;;;;;4972656;28;20042;-77
2021/12/14 00:33:15;;;;;;;30.03;16.17;;;;;;;;;;4974096;28;20072;-77
2021/12/14 00:35:42;;;;;;;32.50;14.77;;;;;;;;;;4972807;28;20391;-78
2021/12/14 00:38:09;;;;;;;26.83;14.20;;;;;;;;;;4972528;28;20117;-77
2021/12/14 00:40:41;;;;;;;26.47;15.03;;;;;;;;;;4974114;28;20031;-77
2021/12/14 00:43:08;;;;;;;26.67;14.33;;;;;;;;;;4972353;28;20027;-77
2021/12/14 00:45:36;;;;;;;28.63;14.73;;;;;;;;;;4973986;28;20030;-77
2021/12/14 00:48:03;;;;;;;32.23;14.37;;;;;;;;;;4972506;28;20054;-77
2021/12/14 00:50:30;;;;;;;28.87;13.80;;;;;;;;;;4973688;28;20031;-77
2021/12/14 00:52:56;;;;;;;27.47;13.97;;;;;;;;;;4972270;28;20022;-75
2021/12/14 00:55:27;;;;;;;28.73;14.90;;;;;;;;;;4988485;28;20023;-77
2021/12/14 00:57:53;;;;;;;29.40;15.02;;;;;;;;;;4973321;28;20030;-76
2021/12/14 01:00:23;;;;;;;23.83;13.90;;;;;;;;;;4973391;28;20391;-76
2021/12/14 01:02:49;;;;;;;25.83;13.83;;;;;;;;;;4973521;28;20442;-76
2021/12/14 01:05:20;;;;;;;24.07;13.00;;;;;;;;;;4973371;28;20019;-76
2021/12/14 01:07:47;;;;;;;26.38;13.05;;;;;;;;;;4972017;28;20026;-75
2021/12/14 01:10:19;;;;;;;29.77;15.27;;;;;;;;;;4971638;28;20034;-76
2021/12/14 01:12:51;;;;;;;28.97;14.03;;;;;;;;;;4971808;28;20023;-77
2021/12/14 01:15:59;;;;;;;30.58;14.23;;;;;;;;;;4972766;28;20113;-76
2021/12/14 01:24:22;;;;;;;27.53;14.67;;;;;;;;;;4991214;28;20090;-77
2021/12/14 01:26:48;;;;;;;26.40;13.33;;;;;;;;;;4973105;28;20034;-77
2021/12/14 01:29:16;;;;;;;27.10;13.67;;;;;;;;;;4972947;28;20038;-78
2021/12/14 01:31:43;;;;;;;27.90;13.47;;;;;;;;;;4972030;28;20062;-76
2021/12/14 01:34:17;;;;;;;26.77;14.33;;;;;;;;;;4971896;28;20468;-77
2021/12/14 01:36:49;;;;;;;28.60;13.70;;;;;;;;;;4973151;28;20412;-75
2021/12/14 01:42:06;;;;;;;25.63;12.82;;;;;;;;;;4972922;28;20038;-77
2021/12/14 01:44:39;;;;;;;22.43;11.93;;;;;;;;;;4971370;28;20030;-77
2021/12/14 01:47:14;;;;;;;23.80;12.63;;;;;;;;;;4973183;28;20488;-77
2021/12/14 01:49:40;;;;;;;27.10;13.63;;;;;;;;;;4972840;28;20034;-78
2021/12/14 01:52:12;;;;;;;28.67;14.47;;;;;;;;;;4972628;28;20029;-77
2021/12/14 01:54:45;;;;;;;29.70;12.35;;;;;;;;;;4971402;28;20035;-75
2021/12/14 01:57:13;;;;;;;29.60;13.20;;;;;;;;;;4970843;28;20031;-76
2021/12/14 01:59:43;;;;;;;28.00;13.80;;;;;;;;;;4971046;28;20030;-76
2021/12/14 02:02:23;;;;;;;27.80;13.53;;;;;;;;;;4970684;28;20125;-77
2021/12/14 02:04:53;;;;;;;31.47;13.83;;;;;;;;;;4971061;28;20109;-77
2021/12/14 02:07:20;;;;;;;25.83;12.77;;;;;;;;;;4970989;28;20493;-76
2021/12/14 02:09:52;;;;;;;27.57;14.80;;;;;;;;;;4970811;28;20022;-76
2021/12/14 02:12:22;;;;;;;32.05;13.52;;;;;;;;;;4970679;28;20435;-78
2021/12/14 02:14:48;;;;;;;26.07;12.57;;;;;;;;;;4972147;28;20502;-76
2021/12/14 02:17:17;;;;;;;24.60;12.77;;;;;;;;;;4971957;28;20337;-77
2021/12/14 02:19:46;;;;;;;25.73;12.57;;;;;;;;;;4972010;28;20041;-77
2021/12/14 02:22:12;;;;;;;28.30;13.37;;;;;;;;;;4970420;28;20026;-76
2021/12/14 02:24:41;;;;;;;32.90;13.93;;;;;;;;;;4972274;28;20046;-76
2021/12/14 02:27:07;;;;;;;29.20;13.07;;;;;;;;;;4970260;28;20407;-76
2021/12/14 02:29:40;;;;;;;26.57;14.27;;;;;;;;;;4970124;28;20019;-77
2021/12/14 02:32:12;;;;;;;26.47;14.30;;;;;;;;;;4970264;28;20031;-76
2021/12/14 02:35:00;;;;;;;31.13;14.10;;;;;;;;;;4970528;28;20364;-77
2021/12/14 02:37:54;;;;;;;29.13;13.73;;;;;;;;;;4970377;28;20054;-77
2021/12/14 02:40:53;;;;;;;29.03;13.63;;;;;;;;;;4970238;28;20026;-76
2021/12/14 02:43:23;;;;;;;30.13;13.80;;;;;;;;;;4971159;28;20037;-76
2021/12/14 02:45:49;;;;;;;30.07;13.47;;;;;;;;;;4970586;28;20474;-75
2021/12/14 02:48:15;;;;;;;25.97;14.33;;;;;;;;;;4970237;28;20036;-76
2021/12/14 02:50:41;;;;;;;25.47;12.77;;;;;;;;;;4971302;28;20027;-76
2021/12/14 02:53:07;;;;;;;29.10;13.53;;;;;;;;;;4971111;28;20029;-77
2021/12/14 02:55:33;;;;;;;29.33;13.83;;;;;;;;;;4970078;28;20387;-77
2021/12/14 02:58:05;;;;;;;26.37;13.50;;;;;;;;;;4971221;28;20035;-74
2021/12/14 03:00:39;;;;;;;34.05;14.68;;;;;;;;;;4970008;28;20027;-77
2021/12/14 03:03:06;;;;;;;29.40;15.10;;;;;;;;;;4969952;28;20034;-76
2021/12/14 03:05:35;;;;;;;26.27;12.30;;;;;;;;;;4971389;28;20038;-77
2021/12/14 03:08:06;;;;;;;24.57;14.07;;;;;;;;;;4953967;28;20049;-75
2021/12/14 03:10:54;;;;;;;27.13;12.68;;;;;;;;;;4970182;28;20031;-76
2021/12/14 03:13:21;;;;;;;27.17;13.13;;;;;;;;;;4972281;28;20051;-76
2021/12/14 03:15:52;;;;;;;27.33;13.00;;;;;;;;;;4970213;28;20027;-75
2021/12/14 03:18:23;;;;;;;25.97;13.83;;;;;;;;;;4969545;28;20113;-76
2021/12/14 03:20:59;;;;;;;28.87;14.13;;;;;;;;;;4969640;28;20073;-76
2021/12/14 03:23:29;;;;;;;32.73;13.53;;;;;;;;;;4971386;28;20062;-76
2021/12/14 03:25:59;;;;;;;26.47;13.73;;;;;;;;;;4985989;28;20026;-77
2021/12/14 03:28:28;;;;;;;30.50;14.47;;;;;;;;;;4985561;28;20369;-77
2021/12/14 03:31:11;;;;;;;29.17;13.07;;;;;;;;;;4971117;28;20491;-76
2021/12/14 03:33:44;;;;;;;37.70;17.10;;;;;;;;;;4971244;28;20015;-76
2021/12/14 03:36:15;;;;;;;29.00;14.43;;;;;;;;;;4970887;28;20031;-73
2021/12/14 03:39:06;;;;;;;28.10;14.43;;;;;;;;;;4969787;28;20130;-72
2021/12/14 03:41:42;;;;;;;28.00;12.90;;;;;;;;;;4969551;28;20035;-72
2021/12/14 03:44:15;;;;;;;28.53;12.93;;;;;;;;;;4973680;28;20403;-74
2021/12/14 03:47:01;;;;;;;30.37;14.07;;;;;;;;;;4975010;28;20033;-72
2021/12/14 03:49:35;;;;;;;28.03;13.23;;;;;;;;;;4973514;28;20030;-75
2021/12/14 03:52:01;;;;;;;28.83;14.30;;;;;;;;;;4975001;28;20502;-73
2021/12/14 03:54:27;;;;;;;28.53;13.63;;;;;;;;;;4974753;28;20106;-72
2021/12/14 03:56:54;;;;;;;33.87;13.90;;;;;;;;;;4973692;28;20041;-74
2021/12/14 03:59:21;;;;;;;28.47;14.53;;;;;;;;;;4974887;28;20023;-74
2021/12/14 04:01:50;;;;;;;30.37;14.70;;;;;;;;;;4973650;28;20364;-73
2021/12/14 04:04:31;;;;;;;29.23;13.90;;;;;;;;;;4973528;28;20031;-73
2021/12/14 04:07:00;;;;;;;33.13;13.70;;;;;;;;;;4974821;28;20058;-73
2021/12/14 04:09:30;;;;;;;34.50;14.17;;;;;;;;;;4973322;28;20026;-74
2021/12/14 04:11:56;;;;;;;29.67;13.60;;;;;;;;;;4973359;28;20398;-73
2021/12/14 04:14:22;;;;;;;27.50;13.67;;;;;;;;;;4974504;28;20102;-74
2021/12/14 04:16:50;;;;;;;28.30;13.30;;;;;;;;;;4973450;28;20471;-74
2021/12/14 04:19:25;;;;;;;28.37;13.37;;;;;;;;;;4973020;28;20506;-73
2021/12/14 04:21:54;;;;;;;26.33;12.00;;;;;;;;;;4973073;28;20030;-73
2021/12/14 04:24:26;;;;;;;31.80;14.10;;;;;;;;;;4974121;28;20022;-74
2021/12/14 04:26:52;;;;;;;;;;;;;;;;;;4975281;28;20495;-74
2021/12/14 04:29:19;;;;;;;26.27;11.67;;;;;;;;;;4974263;28;20306;-74
2021/12/14 04:31:46;;;;;;;30.20;13.53;;;;;;;;;;4973358;28;20102;-75
2021/12/14 04:34:17;;;;;;;31.97;14.33;;;;;;;;;;4972848;28;20503;-74
2021/12/14 04:36:51;;;;;;;31.23;13.70;;;;;;;;;;4973913;28;20062;-74
2021/12/14 04:51:57;;;;;;;34.87;13.43;;;;;;;;;;4974176;28;20037;-74
2021/12/14 04:54:02;;;;;;;33.10;14.47;;;;;;;;;;4973491;28;20054;-73
2021/12/14 04:56:33;;;;;;;33.13;14.47;;;;;;;;;;4973848;28;20030;-73
2021/12/14 04:59:23;;;;;;;39.00;14.07;;;;;;;;;;4974086;28;20037;-74
2021/12/14 05:01:51;;;;;;;33.33;14.30;;;;;;;;;;4972617;28;20027;-72
2021/12/14 05:04:22;;;;;;;35.20;14.20;;;;;;;;;;4973660;28;20023;-73
2021/12/14 05:06:53;;;;;;;31.85;14.60;;;;;;;;;;4972392;28;20058;-73
2021/12/14 05:09:27;;;;;;;27.40;12.37;;;;;;;;;;4988472;28;20027;-74
2021/12/14 05:12:10;;;;;;;28.97;14.47;;;;;;;;;;4973819;28;20669;-74
2021/12/14 05:14:39;;;;;;;32.03;12.73;;;;;;;;;;4972343;28;20027;-74
2021/12/14 05:17:08;;;;;;;31.63;13.73;;;;;;;;;;4972565;28;20031;-72
2021/12/14 05:19:37;;;;;;;29.83;12.50;;;;;;;;;;4972425;28;20031;-73
2021/12/14 05:22:16;;;;;;;32.60;13.23;;;;;;;;;;4973636;28;20543;-74
2021/12/14 05:24:47;;;;;;;27.97;12.50;;;;;;;;;;4974159;28;20026;-73
2021/12/14 05:27:19;;;;;;;29.48;13.27;;;;;;;;;;4973556;28;20185;-73
2021/12/14 05:29:46;;;;;;;25.88;12.18;;;;;;;;;;4973366;28;20050;-73
2021/12/14 05:32:15;;;;;;;28.80;13.07;;;;;;;;;;4973429;28;20091;-72
2021/12/14 05:34:42;;;;;;;31.73;16.03;;;;;;;;;;4972296;28;20035;-73
2021/12/14 05:37:10;;;;;;;38.77;15.13;;;;;;;;;;4971940;28;20081;-73
2021/12/14 05:45:05;;;;;;;27.73;13.23;;;;;;;;;;4973593;28;20085;-75
2021/12/14 05:47:31;;;;;;;30.07;14.80;;;;;;;;;;4971747;28;20070;-74
2021/12/14 05:49:57;;;;;;;32.67;13.83;;;;;;;;;;4971582;28;20026;-73
2021/12/14 05:52:27;;;;;;;30.63;14.33;;;;;;;;;;4971338;28;20471;-73
2021/12/14 05:54:55;;;;;;;25.70;12.80;;;;;;;;;;4971429;28;20023;-75
2021/12/14 05:57:23;;;;;;;28.57;12.63;;;;;;;;;;4971140;28;20092;-75
2021/12/14 05:59:49;;;;;;;29.27;12.17;;;;;;;;;;4971649;28;20034;-74
2021/12/14 06:02:15;;;;;;;30.67;13.87;;;;;;;;;;4970990;28;20031;-74
2021/12/14 06:04:46;;;;;;;30.60;13.73;;;;;;;;;;4970485;28;20442;-74
2021/12/14 06:07:12;;;;;;;28.60;13.03;;;;;;;;;;4972420;28;20109;-73
2021/12/14 06:09:44;;;;;;;33.53;15.57;;;;;;;;;;4970861;28;20025;-75
2021/12/14 06:12:20;;;;;;;30.00;12.63;;;;;;;;;;4972828;28;20023;-72
2021/12/14 06:14:52;;;;;;;30.10;13.87;;;;;;;;;;4969628;28;20117;-74
2021/12/14 06:17:34;;;;;;;30.48;12.98;;;;;;;;;;4963418;28;20150;-72
2021/12/14 06:20:14;;;;;;;37.08;14.02;;;;;;;;;;4968288;28;20037;-74
2021/12/14 06:22:41;;;;;;;34.03;12.93;;;;;;;;;;4964260;28;20077;-75
2021/12/14 06:25:14;;;;;;;31.67;12.40;;;;;;;;;;4967127;28;20511;-76
2021/12/14 06:27:40;;;;;;;31.67;13.33;;;;;;;;;;4960705;28;20118;-72
2021/12/14 06:30:12;;;;;;;26.20;13.00;;;;;;;;;;4971383;28;20030;-73
2021/12/14 06:32:44;;;;;;;28.90;15.00;;;;;;;;;;4968779;28;20134;-73
2021/12/14 06:35:12;;;;;;;31.20;12.85;;;;;;;;;;4972179;28;20455;-73
2021/12/14 06:38:24;;;;;;;30.17;13.73;;;;;;;;;;4969292;28;20047;-73
2021/12/14 06:40:52;;;;;;;30.98;13.82;;;;;;;;;;4974119;28;20033;-72
2021/12/14 06:43:27;;;;;;;27.23;12.47;;;;;;;;;;4967839;28;20043;-76
2021/12/14 06:45:58;;;;;;;31.93;12.70;;;;;;;;;;4956624;28;20022;-74
2021/12/14 06:48:38;;;;;;;31.20;13.25;;;;;;;;;;4968637;28;20050;-74
2021/12/14 06:51:22;;;;;;;33.47;14.70;;;;;;;;;;4968941;28;20043;-74
2021/12/14 06:53:52;;;;;;;33.10;14.40;;;;;;;;;;4987635;28;20031;-74
2021/12/14 06:56:22;;;;;;;29.23;12.67;;;;;;;;;;4970482;28;20398;-73
2021/12/14 06:59:04;;;;;;;29.00;12.63;;;;;;;;;;4962289;28;20127;-74
2021/12/14 07:01:37;;;;;;;37.83;13.83;;;;;;;;;;4966542;28;20033;-73
2021/12/14 07:04:07;;;;;;;30.40;13.70;;;;;;;;;;4984429;28;20281;-72
2021/12/14 07:06:43;;;;;;;30.73;12.73;;;;;;;;;;4967145;28;20031;-73
2021/12/14 07:09:14;;;;;;;32.73;13.80;;;;;;;;;;4961124;28;20031;-74
2021/12/14 07:11:44;;;;;;;32.47;12.77;;;;;;;;;;4977249;28;20057;-73
2021/12/14 07:14:41;;;;;;;24.43;11.00;;;;;;;;;;4968473;28;20033;-73
2021/12/14 07:17:41;;;;;;;29.40;13.50;;;;;;;;;;4976098;28;20046;-73
2021/12/14 07:20:21;;;;;;;27.97;12.80;;;;;;;;;;4968066;28;20026;-73
2021/12/14 07:23:01;;;;;;;28.30;12.60;;;;;;;;;;4968230;28;20371;-74
2021/12/14 07:25:31;;;;;;;31.07;12.50;;;;;;;;;;4963121;28;20121;-75
2021/12/14 07:28:06;;;;;;;36.93;12.83;;;;;;;;;;4976687;28;20080;-73
2021/12/14 07:30:43;;;;;;;27.43;11.77;;;;;;;;;;4966523;28;20120;-74
2021/12/14 07:33:15;;;;;;;28.53;11.80;;;;;;;;;;4961433;28;20049;-73
2021/12/14 07:35:47;;;;;;;;;;;;;;;;;;4955118;28;20110;-73
2021/12/14 07:38:27;;;;;;;26.10;10.63;;;;;;;;;;4968206;28;20560;-73
2021/12/14 07:41:18;;;;;;;20.33;9.57;;;;;;;;;;4960714;28;20561;-75
2021/12/14 07:43:59;;;;;;;24.27;9.47;;;;;;;;;;4970697;28;20041;-74
2021/12/14 07:46:34;;;;;;;19.23;8.90;;;;;;;;;;4967306;28;20583;-72
2021/12/14 07:49:07;;;;;;;19.20;8.73;;;;;;;;;;4958802;28;20045;-72
2021/12/14 07:51:38;;;;;;;20.70;9.43;;;;;;;;;;4963980;28;20042;-73
2021/12/14 07:54:15;;;;;;;14.87;7.70;;;;;;;;;;4960106;28;20023;-73
2021/12/14 07:56:45;;;;;;;19.97;8.03;;;;;;;;;;4951855;28;20089;-73
2021/12/14 07:59:24;;;;;;;20.43;7.83;;;;;;;;;;4963115;28;20063;-76
2021/12/14 08:02:09;;;;;;;10.77;5.77;;;;;;;;;;4963467;28;20069;-74
2021/12/14 08:04:36;;;;;;;13.77;5.00;;;;;;;;;;4969436;28;20125;-73
2021/12/14 08:07:03;;;;;;;10.77;5.20;;;;;;;;;;4965446;28;20149;-74
2021/12/14 08:09:47;;;;;;;8.83;4.57;;;;;;;;;;4967746;28;20029;-74
2021/12/14 08:12:33;;;;;;;11.30;5.67;;;;;;;;;;4963135;28;20035;-75
2021/12/14 08:15:20;;;;;;;14.10;6.10;;;;;;;;;;4965523;28;20039;-74
2021/12/14 08:17:59;;;;;;;12.63;6.33;;;;;;;;;;4963259;28;20054;-73
2021/12/14 08:20:26;;;;;;;9.20;5.07;;;;;;;;;;4971756;28;20046;-74
2021/12/14 08:22:55;;;;;;;11.73;5.57;;;;;;;;;;4964218;28;20038;-74
2021/12/14 08:25:28;;;;;;;12.30;5.00;;;;;;;;;;4973606;28;20048;-73
2021/12/14 08:28:02;;;;;;;9.70;5.00;;;;;;;;;;4964664;28;20031;-73
2021/12/14 08:30:30;;;;;;;12.67;5.20;;;;;;;;;;4965929;28;20379;-74
2021/12/14 08:32:57;;;;;;;11.10;6.00;;;;;;;;;;4963712;28;20061;-74
2021/12/14 08:35:23;;;;;;;11.90;5.27;;;;;;;;;;4970985;28;20110;-71
2021/12/14 08:37:57;;;;;;;12.33;5.63;;;;;;;;;;4987952;28;20138;-72
2021/12/14 08:40:27;;;;;;;17.63;5.57;;;;;;;;;;4969343;28;20030;-74
2021/12/14 08:43:08;;;;;;;8.63;4.93;;;;;;;;;;4974562;28;20074;-74
2021/12/14 08:45:45;;;;;;;19.97;5.93;;;;;;;;;;4969313;28;20043;-75
2021/12/14 08:48:16;;;;;;;9.17;5.57;;;;;;;;;;4955690;28;20078;-72
2021/12/14 08:50:53;;;;;;;10.40;5.07;;;;;;;;;;4968683;28;20085;-72
2021/12/14 08:53:20;;;;;;;11.60;6.30;;;;;;;;;;4945978;28;20031;-73
2021/12/14 08:55:49;;;;;;;10.33;5.20;;;;;;;;;;4967044;28;20110;-72
2021/12/14 08:58:16;;;;;;;9.30;5.43;;;;;;;;;;4980290;28;20027;-72
2021/12/14 09:00:49;;;;;;;36.17;12.33;;;;;;;;;;4951553;28;20149;-74
2021/12/14 09:03:33;;;;;;;26.00;7.90;;;;;;;;;;4986586;28;20042;-74
2021/12/14 09:06:15;;;;;;;15.00;6.97;;;;;;;;;;4956242;28;20051;-73
2021/12/14 09:08:44;;;;;;;14.98;7.72;;;;;;;;;;4962817;28;20483;-73
2021/12/14 09:11:12;;;;;;;16.60;7.30;;;;;;;;;;4964952;28;20039;-71
2021/12/14 09:13:38;;;;;;;19.60;8.23;;;;;;;;;;4965062;28;20027;-72
2021/12/14 09:16:29;;;;;;;14.63;7.37;;;;;;;;;;4957190;28;20113;-73
2021/12/14 09:19:11;;;;;;;18.77;7.70;;;;;;;;;;4958813;28;20031;-73
2021/12/14 09:21:42;;;;;;;18.02;8.43;;;;;;;;;;4959436;28;20027;-71
2021/12/14 09:24:14;;;;;;;15.93;6.70;;;;;;;;;;4965640;28;20035;-73
2021/12/14 09:26:41;;;;;;;;;;;;;;;;;;4966368;28;20074;-72
2021/12/14 09:29:12;;;;;;;20.77;8.80;;;;;;;;;;4959102;28;19922;-72
2021/12/14 09:31:40;;;;;;;17.02;8.40;;;;;;;;;;4956455;28;20031;-73
2021/12/14 09:34:08;;;;;;;18.97;7.93;;;;;;;;;;4966791;28;20109;-74
2021/12/14 09:36:34;;;;;;;17.20;8.20;;;;;;;;;;4962419;28;20027;-73
2021/12/14 09:39:17;;;;;;;17.10;7.60;;;;;;;;;;4958370;28;20530;-74
2021/12/14 09:41:46;;;;;;;19.10;8.50;;;;;;;;;;4957255;28;20054;-73
2021/12/14 09:44:16;;;;;;;21.97;9.67;;;;;;;;;;4960360;28;20031;-73
2021/12/14 09:46:45;;;;;;;22.20;10.17;;;;;;;;;;4947378;28;20034;-74
2021/12/14 09:49:12;;;;;;;20.93;9.73;;;;;;;;;;4967991;28;20156;-73
2021/12/14 09:51:52;;;;;;;23.90;9.63;;;;;;;;;;4964146;28;20105;-73
2021/12/14 09:54:22;;;;;;;21.87;10.23;;;;;;;;;;4954033;28;20114;-72
2021/12/14 09:56:53;;;;;;;26.57;10.77;;;;;;;;;;4966836;28;20026;-73
2021/12/14 09:59:19;;;;;;;27.93;10.03;;;;;;;;;;4965959;28;20065;-72
2021/12/14 10:01:56;;;;;;;20.07;8.47;;;;;;;;;;4965542;28;20030;-73
2021/12/14 10:04:33;;;;;;;19.50;10.97;;;;;;;;;;4966637;28;20035;-74
2021/12/14 10:07:02;;;;;;;29.97;10.53;;;;;;;;;;4962472;28;20037;-74
2021/12/14 10:09:31;;;;;;;25.13;10.63;;;;;;;;;;4957751;28;20019;-74
2021/12/14 10:12:49;;;;;;;21.37;9.60;;;;;;;;;;4961898;28;20031;-72
2021/12/14 10:15:18;;;;;;;32.03;9.63;;;;;;;;;;4968029;28;20113;-73
2021/12/14 10:17:47;;;;;;;19.37;9.00;;;;;;;;;;4969368;28;20022;-73
2021/12/14 10:20:18;;;;;;;16.97;8.57;;;;;;;;;;4953371;28;20031;-74
2021/12/14 10:22:45;;;;;;;24.25;10.75;;;;;;;;;;4946370;29;20043;-73
2021/12/14 10:25:15;;;;;;;23.00;10.87;;;;;;;;;;4970154;28;20078;-73
2021/12/14 10:27:45;;;;;;;16.87;8.93;;;;;;;;;;4956839;28;20059;-72
2021/12/14 10:30:18;;;;;;;18.87;9.40;;;;;;;;;;4963846;28;20133;-73
2021/12/14 10:32:45;;;;;;;20.10;8.17;;;;;;;;;;4968189;28;20033;-72
2021/12/14 10:35:21;;;;;;;21.37;8.60;;;;;;;;;;4963461;28;20035;-73
2021/12/14 10:37:57;;;;;;;26.30;8.53;;;;;;;;;;4970396;28;20487;-73
2021/12/14 10:43:18;;;;;;;30.17;11.40;;;;;;;;;;4967102;28;20057;-74
2021/12/14 10:45:53;;;;;;;14.80;6.17;;;;;;;;;;4959084;28;20030;-72
2021/12/14 10:48:22;;;;;;;16.13;5.93;;;;;;;;;;4975558;28;20031;-73
2021/12/14 10:50:51;;;;;;;12.07;6.17;;;;;;;;;;4968110;28;20031;-74
2021/12/14 10:53:20;;;;;;;24.27;7.30;;;;;;;;;;4965390;28;20034;-75
2021/12/14 10:56:17;;;;;;;9.37;4.93;;;;;;;;;;4961937;28;20534;-73
2021/12/14 10:58:43;;;;;;;28.67;6.13;;;;;;;;;;4967476;28;20410;-75
2021/12/14 11:01:20;;;;;;;8.93;4.30;;;;;;;;;;4959984;28;20031;-74
2021/12/14 11:03:51;;;;;;;13.07;4.57;;;;;;;;;;4963295;28;20018;-73
2021/12/14 11:06:22;;;;;;;20.15;4.75;;;;;;;;;;4950436;28;20128;-74
2021/12/14 11:11:47;;;;;;;9.07;4.63;;;;;;;;;;4967047;28;20034;-75
2021/12/14 11:14:15;;;;;;;17.10;6.43;;;;;;;;;;4965273;28;20093;-76
2021/12/14 11:19:49;;;;;;;8.82;4.25;;;;;;;;;;4970754;28;20190;-74
2021/12/14 11:22:29;;;;;;;12.25;4.07;;;;;;;;;;4970850;28;20046;-75
2021/12/14 11:25:11;;;;;;;12.67;4.37;;;;;;;;;;4949268;28;20040;-74
2021/12/14 11:27:41;;;;;;;18.00;4.15;;;;;;;;;;4949063;28;20399;-74
2021/12/14 11:30:26;;;;;;;16.73;4.10;;;;;;;;;;4979398;28;20425;-72
2021/12/14 11:33:31;;;;;;;10.10;4.70;;;;;;;;;;4965911;28;20027;-74
2021/12/14 11:36:33;;;;;;;9.80;4.60;;;;;;;;;;4980526;28;20038;-74
2021/12/14 11:39:24;;;;;;;15.55;4.38;;;;;;;;;;4961316;28;20559;-75
2021/12/14 11:42:05;;;;;;;9.47;5.37;;;;;;;;;;4970747;28;20038;-73
2021/12/14 11:44:45;;;;;;;11.77;4.55;;;;;;;;;;4962505;28;20028;-75
2021/12/14 11:47:23;;;;;;;9.30;4.17;;;;;;;;;;4972276;28;20125;-75
2021/12/14 11:50:02;;;;;;;14.10;5.57;;;;;;;;;;4982405;28;20117;-74
2021/12/14 11:52:52;;;;;;;13.27;4.77;;;;;;;;;;4964476;28;20026;-74
2021/12/14 11:55:20;;;;;;;14.73;5.40;;;;;;;;;;4977367;28;20051;-73
2021/12/14 11:57:47;;;;;;;21.33;5.00;;;;;;;;;;4957339;28;20070;-74
2021/12/14 12:00:19;;;;;;;6.40;4.03;;;;;;;;;;4963923;28;20460;-73
2021/12/14 12:02:45;;;;;;;5.88;3.08;;;;;;;;;;4976934;28;20126;-74
2021/12/14 12:05:17;;;;;;;7.53;3.47;;;;;;;;;;4964604;28;20118;-74
2021/12/14 12:10:40;;;;;;;6.60;3.97;;;;;;;;;;4961903;28;20045;-74
2021/12/14 12:13:05;;;;;;;9.83;3.97;;;;;;;;;;4956616;28;20035;-72
2021/12/14 12:15:36;;;;;;;16.10;3.80;;;;;;;;;;4966742;28;20033;-72
2021/12/14 12:18:02;;;;;;;8.27;3.23;;;;;;;;;;4960154;28;20386;-74
2021/12/14 12:20:29;;;;;;;16.63;4.53;;;;;;;;;;4955310;28;20507;-75
2021/12/14 12:23:21;;;;;;;11.47;3.70;;;;;;;;;;4968445;28;20781;-73
2021/12/14 12:25:57;;;;;;;6.47;3.00;;;;;;;;;;4968465;28;20363;-75
2021/12/14 12:28:25;;;;;;;10.97;3.27;;;;;;;;;;4966114;28;20375;-74
2021/12/14 12:31:08;;;;;;;9.20;3.27;;;;;;;;;;4970639;28;20065;-75
2021/12/14 12:33:50;;;;;;;12.53;3.53;;;;;;;;;;4964637;28;20503;-74
2021/12/14 12:36:28;;;;;;;5.30;3.00;;;;;;;;;;4963851;28;20042;-73
2021/12/14 12:39:15;;;;;;;7.67;3.27;;;;;;;;;;4966639;28;20043;-75
2021/12/14 12:41:48;;;;;;;11.77;3.73;;;;;;;;;;4969741;28;20029;-73
2021/12/14 12:44:23;;;;;;;19.23;6.37;;;;;;;;;;4962380;28;20353;-75
2021/12/14 12:47:00;;;;;;;10.67;3.93;;;;;;;;;;4968143;28;20065;-73
2021/12/14 12:49:31;;;;;;;8.73;4.00;;;;;;;;;;4970602;28;20047;-73
2021/12/14 12:52:15;;;;;;;7.13;3.20;;;;;;;;;;4967112;28;20174;-75
2021/12/14 12:55:17;;;;;;;8.30;3.50;;;;;;;;;;4965299;28;20401;-75
2021/12/14 12:57:47;;;;;;;10.65;3.35;;;;;;;;;;4955805;28;20041;-76
2021/12/14 13:00:46;;;;;;;9.90;3.33;;;;;;;;;;4965504;28;20037;-75
2021/12/14 13:03:20;;;;;;;7.23;2.93;;;;;;;;;;4963171;28;20030;-74
2021/12/14 13:05:55;;;;;;;8.10;3.17;;;;;;;;;;4968119;28;20023;-75
2021/12/14 13:08:33;;;;;;;11.90;3.97;;;;;;;;;;4966654;28;20031;-74
2021/12/14 13:11:01;;;;;;;9.33;3.40;;;;;;;;;;4968992;28;20467;-73
2021/12/14 13:13:37;;;;;;;6.53;3.10;;;;;;;;;;4971997;28;20023;-73
2021/12/14 13:16:08;;;;;;;11.40;3.20;;;;;;;;;;4975702;28;20206;-75
2021/12/14 13:18:45;;;;;;;8.47;3.57;;;;;;;;;;4966135;28;20030;-74
2021/12/14 13:21:47;;;;;;;7.90;3.70;;;;;;;;;;4966233;28;20387;-74
2021/12/14 13:24:51;;;;;;;8.25;3.22;;;;;;;;;;4965045;28;20034;-73
2021/12/14 13:27:20;;;;;;;13.27;4.00;;;;;;;;;;4979382;28;20121;-74
2021/12/14 13:29:49;;;;;;;12.03;3.53;;;;;;;;;;4968541;28;20114;-74
2021/12/14 13:32:25;;;;;;;8.97;5.07;;;;;;;;;;4959306;28;20632;-73
2021/12/14 13:35:12;;;;;;;7.93;3.53;;;;;;;;;;4967122;28;20043;-75
2021/12/14 13:37:39;;;;;;;8.60;3.90;;;;;;;;;;4960925;28;20054;-74
2021/12/14 13:40:30;;;;;;;24.63;6.03;;;;;;;;;;4978362;28;20681;-74
2021/12/14 13:43:03;;;;;;;14.70;5.63;;;;;;;;;;4966068;28;20403;-75
2021/12/14 13:45:33;;;;;;;9.57;4.30;;;;;;;;;;4966831;28;20026;-74
2021/12/14 13:48:01;;;;;;;9.10;3.87;;;;;;;;;;4964336;28;20093;-74
2021/12/14 13:50:34;;;;;;;12.87;5.33;;;;;;;;;;4964059;28;20066;-75
2021/12/14 13:52:59;;;;;;;11.43;4.33;;;;;;;;;;4975273;28;20034;-73
2021/12/14 13:55:33;;;;;;;12.80;4.20;;;;;;;;;;4961895;28;20105;-74
2021/12/14 13:58:06;;;;;;;33.30;5.70;;;;;;;;;;4961332;28;20101;-75
2021/12/14 14:00:38;;;;;;;11.90;4.07;;;;;;;;;;4963458;28;20341;-76
2021/12/14 14:03:04;;;;;;;26.38;4.20;;;;;;;;;;4977308;28;20126;-74
2021/12/14 14:05:30;;;;;;;10.83;3.67;;;;;;;;;;4966589;28;20134;-74
2021/12/14 14:08:12;;;;;;;10.67;4.70;;;;;;;;;;4965642;28;20039;-74
2021/12/14 14:10:39;;;;;;;16.20;4.30;;;;;;;;;;4966427;28;20034;-74
2021/12/14 14:13:11;;;;;;;12.50;4.50;;;;;;;;;;4962413;28;20043;-74
2021/12/14 14:15:40;;;;;;;10.43;4.80;;;;;;;;;;4970015;28;20501;-73
2021/12/14 14:18:10;;;;;;;16.03;4.97;;;;;;;;;;4960454;28;20074;-74
2021/12/14 14:20:49;;;;;;;22.08;9.35;;;;;;;;;;4968519;28;20483;-73
2021/12/14 14:23:20;;;;;;;18.77;6.57;;;;;;;;;;4968012;28;20039;-74
2021/12/14 14:26:13;;;;;;;14.10;6.20;;;;;;;;;;4964680;28;20034;-73
2021/12/14 14:28:47;;;;;;;19.13;5.80;;;;;;;;;;4966908;28;20477;-75
2021/12/14 14:31:30;;;;;;;11.67;5.83;;;;;;;;;;4972416;28;20041;-73
2021/12/14 14:33:58;;;;;;;12.90;5.70;;;;;;;;;;4963588;28;20034;-74
2021/12/14 14:36:26;;;;;;;10.73;4.73;;;;;;;;;;4953627;28;20109;-74
2021/12/14 14:39:01;;;;;;;15.93;6.60;;;;;;;;;;4983448;28;20058;-73
2021/12/14 14:41:30;;;;;;;12.23;6.57;;;;;;;;;;4963217;28;20133;-74
2021/12/14 14:44:10;;;;;;;16.83;6.07;;;;;;;;;;4963414;28;20027;-74
2021/12/14 14:46:38;;;;;;;16.17;6.97;;;;;;;;;;4963695;28;20030;-73
2021/12/14 14:49:10;;;;;;;20.30;6.57;;;;;;;;;;4968157;28;20043;-75
2021/12/14 14:51:57;;;;;;;19.52;6.97;;;;;;;;;;4969396;28;20034;-73
2021/12/14 14:54:35;;;;;;;17.07;7.70;;;;;;;;;;4965683;28;20064;-74
2021/12/14 14:57:06;;;;;;;14.53;6.37;;;;;;;;;;4960240;28;20138;-75
2021/12/14 14:59:33;;;;;;;14.10;6.93;;;;;;;;;;4964149;28;20038;-75
2021/12/14 15:02:00;;;;;;;19.80;7.47;;;;;;;;;;4978035;28;20375;-75
2021/12/14 15:04:26;;;;;;;17.70;7.73;;;;;;;;;;4950970;28;20335;-74
2021/12/14 15:06:54;;;;;;;15.17;6.97;;;;;;;;;;4958460;28;20027;-74
2021/12/14 15:09:29;;;;;;;18.43;7.80;;;;;;;;;;4966241;28;20035;-74
2021/12/14 15:11:59;;;;;;;14.20;7.50;;;;;;;;;;4964780;28;20053;-76
2021/12/14 15:14:35;;;;;;;13.67;7.07;;;;;;;;;;4965075;28;20027;-74
2021/12/14 15:17:15;;;;;;;12.50;5.90;;;;;;;;;;4967441;28;20038;-73
2021/12/14 15:19:43;;;;;;;13.97;6.50;;;;;;;;;;4972741;28;20430;-76
2021/12/14 15:22:32;;;;;;;16.33;7.50;;;;;;;;;;4960770;28;20118;-75
2021/12/14 15:24:58;;;;;;;16.97;7.47;;;;;;;;;;4963093;28;20427;-74
2021/12/14 15:27:44;;;;;;;18.47;7.10;;;;;;;;;;4966522;28;20121;-75
2021/12/14 15:30:20;;;;;;;16.00;6.80;;;;;;;;;;4968567;28;20034;-75
2021/12/14 15:32:54;;;;;;;15.80;6.70;;;;;;;;;;4969437;28;20117;-76
2021/12/14 15:35:34;;;;;;;13.67;6.50;;;;;;;;;;4965470;28;20023;-73
2021/12/14 15:38:08;;;;;;;14.57;6.50;;;;;;;;;;4967717;28;21366;-73
2021/12/14 15:40:35;;;;;;;21.77;8.27;;;;;;;;;;4963592;28;20048;-72
2021/12/14 15:43:01;;;;;;;16.67;6.57;;;;;;;;;;4971790;28;20045;-74
2021/12/14 15:45:44;;;;;;;21.57;7.83;;;;;;;;;;4961306;28;20054;-74